createdAt,value
2018-11-23T00:02:03.934Z,7.6
2018-11-23T00:05:04.434Z,7.7
2018-11-23T00:08:03.845Z,7.7
2018-11-23T00:11:04.066Z,8.1
2018-11-23T00:14:03.890Z,7.8
2018-11-23T00:17:04.012Z,7.6
2018-11-23T00:20:03.969Z,7.8
2018-11-23T00:23:04.114Z,7.5
2018-11-23T00:26:03.706Z,7.6
2018-11-23T00:29:04.094Z,7.4
2018-11-23T00:32:04.182Z,7.8
2018-11-23T00:35:03.863Z,7.6
2018-11-23T00:38:04.030Z,7.7
2018-11-23T00:41:03.950Z,7.6
2018-11-23T00:44:03.843Z,7.7
2018-11-23T00:47:03.791Z,7.7
2018-11-23T00:50:03.992Z,7.6
2018-11-23T00:53:03.897Z,7.5
2018-11-23T00:56:03.933Z,7.6
2018-11-23T00:59:03.823Z,7.7
2018-11-23T01:02:03.789Z,7.8
2018-11-23T01:05:04.292Z,8
2018-11-23T01:08:03.833Z,7.8
2018-11-23T01:11:04.196Z,7.7
2018-11-23T01:14:04.191Z,7.7
2018-11-23T01:17:04.126Z,7.6
2018-11-23T01:20:04.332Z,7.6
2018-11-23T01:23:04.277Z,7.5
2018-11-23T01:26:03.889Z,7.6
2018-11-23T01:29:03.919Z,7.3
2018-11-23T01:32:04.226Z,7.5
2018-11-23T01:35:04.662Z,7.6
2018-11-23T01:38:03.834Z,7.7
2018-11-23T01:41:03.902Z,7.8
2018-11-23T01:44:03.903Z,7.8
2018-11-23T01:47:04.051Z,7.7
2018-11-23T01:50:04.151Z,7.7
2018-11-23T01:53:04.196Z,7.6
2018-11-23T01:56:03.858Z,7.6
2018-11-23T01:59:04.273Z,7.9
2018-11-23T02:02:04.262Z,7.8
2018-11-23T02:05:03.885Z,7.9
2018-11-23T02:08:04.089Z,7.9
2018-11-23T02:11:03.938Z,7.8
2018-11-23T02:14:03.904Z,7.7
2018-11-23T02:17:04.072Z,7.9
2018-11-23T02:20:03.835Z,7.9
2018-11-23T02:23:03.864Z,7.9
2018-11-23T02:26:03.946Z,8
2018-11-23T02:29:03.754Z,7.9
2018-11-23T02:32:03.775Z,7.9
2018-11-23T02:35:03.946Z,7.7
2018-11-23T02:38:03.847Z,7.7
2018-11-23T02:41:03.754Z,7.8
2018-11-23T02:44:04.184Z,7.8
2018-11-23T02:47:03.890Z,7.8
2018-11-23T02:50:04.073Z,7.6
2018-11-23T02:53:03.922Z,7.8
2018-11-23T02:56:03.859Z,7.7
2018-11-23T02:59:03.918Z,7.7
2018-11-23T03:02:03.655Z,8
2018-11-23T03:05:03.906Z,8
2018-11-23T03:08:03.937Z,7.9
2018-11-23T03:11:03.793Z,7.9
2018-11-23T03:14:04.007Z,7.9
2018-11-23T03:17:03.953Z,7.9
2018-11-23T03:20:03.997Z,7.9
2018-11-23T03:23:04.095Z,8.1
2018-11-23T03:26:04.013Z,8.1
2018-11-23T03:29:03.732Z,8.1
2018-11-23T03:32:03.877Z,7.9
2018-11-23T03:35:04.018Z,7.8
2018-11-23T03:38:04.096Z,7.7
2018-11-23T03:41:03.724Z,8
2018-11-23T03:44:03.707Z,7.9
2018-11-23T03:47:03.845Z,7.9
2018-11-23T03:50:03.817Z,8
2018-11-23T03:53:03.939Z,7.8
2018-11-23T03:56:03.975Z,7.9
2018-11-23T03:59:03.671Z,7.9
2018-11-23T04:02:03.810Z,7.7
2018-11-23T04:05:03.971Z,7.8
2018-11-23T04:08:03.833Z,7.8
2018-11-23T04:11:03.642Z,8.3
2018-11-23T04:14:03.900Z,8.2
2018-11-23T04:17:03.788Z,8
2018-11-23T04:20:03.759Z,8
2018-11-23T04:23:04.479Z,7.8
2018-11-23T04:26:03.825Z,7.9
2018-11-23T04:29:03.810Z,7.8
2018-11-23T04:32:03.799Z,7.6
2018-11-23T04:35:03.786Z,7.6
2018-11-23T04:38:03.928Z,7.6
2018-11-23T04:41:03.873Z,7.9
2018-11-23T04:44:03.683Z,7.7
2018-11-23T04:47:03.749Z,7.6
2018-11-23T04:50:03.798Z,7.6
2018-11-23T04:53:03.950Z,7.4
2018-11-23T04:56:03.817Z,7.4
2018-11-23T04:59:03.813Z,7.4
2018-11-23T05:02:04.280Z,7.4
2018-11-23T05:05:03.752Z,7.2
2018-11-23T05:08:03.659Z,7.1
2018-11-23T05:11:04.056Z,7.2
2018-11-23T05:14:03.816Z,7
2018-11-23T05:17:03.838Z,6.9
2018-11-23T05:20:03.859Z,6.9
2018-11-23T05:23:03.740Z,6.9
2018-11-23T05:26:03.792Z,6.8
2018-11-23T05:29:03.816Z,6.6
2018-11-23T05:32:03.960Z,6.8
2018-11-23T05:35:04.015Z,6.8
2018-11-23T05:38:03.798Z,6.7
2018-11-23T05:41:03.840Z,6.7
2018-11-23T05:44:03.777Z,6.7
2018-11-23T05:47:03.931Z,6.5
2018-11-23T05:50:03.884Z,6.3
2018-11-23T05:53:03.929Z,6.4
2018-11-23T05:56:04.037Z,6.4
2018-11-23T05:59:03.997Z,6.5
2018-11-23T06:02:03.838Z,6.6
2018-11-23T06:05:04.144Z,6.6
2018-11-23T06:08:03.887Z,6.5
2018-11-23T06:11:03.605Z,6.3
2018-11-23T06:14:04.615Z,6.4
2018-11-23T06:17:03.789Z,6.6
2018-11-23T06:20:03.650Z,6.5
2018-11-23T06:23:03.765Z,6.6
2018-11-23T06:26:04.027Z,6.4
2018-11-23T06:29:03.633Z,6.4
2018-11-23T06:32:04.026Z,6.4
2018-11-23T06:35:03.905Z,6.6
2018-11-23T06:38:04.376Z,6.8
2018-11-23T06:41:11.085Z,6.6
2018-11-23T06:44:04.008Z,6.5
2018-11-23T06:47:03.872Z,7
2018-11-23T06:50:04.589Z,6.8
2018-11-23T06:53:04.155Z,6.8
2018-11-23T06:56:04.015Z,6.8
2018-11-23T06:59:03.920Z,6.5
2018-11-23T07:02:04.071Z,6.7
2018-11-23T07:05:03.787Z,6.6
2018-11-23T07:08:03.600Z,6.4
2018-11-23T07:11:03.785Z,7.4
2018-11-23T07:14:04.500Z,7.2
2018-11-23T07:17:03.839Z,7
2018-11-23T07:20:03.924Z,8.7
2018-11-23T07:23:04.105Z,8.4
2018-11-23T07:26:04.071Z,8.3
2018-11-23T07:29:03.805Z,11.7
2018-11-23T07:32:04.032Z,10.6
2018-11-23T07:35:03.708Z,9.4
2018-11-23T07:38:04.014Z,8.7
2018-11-23T07:41:03.969Z,7.9
2018-11-23T07:44:03.766Z,8.6
2018-11-23T07:47:03.745Z,8.4
2018-11-23T07:50:03.865Z,9.7
2018-11-23T07:53:03.839Z,9.2
2018-11-23T07:56:04.063Z,8.6
2018-11-23T07:59:04.508Z,8.6
2018-11-23T08:02:03.767Z,7.8
2018-11-23T08:05:03.796Z,8.6
2018-11-23T08:08:03.837Z,9.2
2018-11-23T08:11:04.049Z,8
2018-11-23T08:14:03.684Z,8.9
2018-11-23T08:17:03.963Z,8.7
2018-11-23T08:20:03.659Z,8.7
2018-11-23T08:23:03.710Z,9.3
2018-11-23T08:26:04.237Z,8.3
2018-11-23T08:29:04.025Z,9.2
2018-11-23T08:32:03.880Z,9
2018-11-23T08:35:03.819Z,8.4
2018-11-23T08:38:04.429Z,8
2018-11-23T08:41:03.918Z,7.7
2018-11-23T08:44:03.897Z,7.7
2018-11-23T08:47:03.583Z,7.4
2018-11-23T08:50:03.942Z,7.3
2018-11-23T08:53:03.860Z,7.7
2018-11-23T08:56:03.637Z,7.5
2018-11-23T08:59:03.797Z,7.8
2018-11-23T09:02:03.861Z,7.3
2018-11-23T09:05:03.530Z,7.7
2018-11-23T09:08:03.916Z,7.4
2018-11-23T09:11:03.784Z,8
2018-11-23T09:14:03.594Z,7.4
2018-11-23T09:17:03.948Z,7.2
2018-11-23T09:20:03.883Z,8.2
2018-11-23T09:23:03.541Z,8
2018-11-23T09:26:04.172Z,7.4
2018-11-23T09:29:03.933Z,7.8
2018-11-23T09:32:03.705Z,7.4
2018-11-23T09:35:04.539Z,7.3
2018-11-23T09:38:03.634Z,7.6
2018-11-23T09:41:04.047Z,7.4
2018-11-23T09:44:03.520Z,7.3
2018-11-23T09:47:10.593Z,7.1
2018-11-23T09:50:03.619Z,7
2018-11-23T09:53:03.741Z,7.3
2018-11-23T09:56:03.558Z,7.3
2018-11-23T09:59:03.664Z,6.9
2018-11-23T10:02:03.802Z,7
2018-11-23T10:05:03.982Z,7.1
2018-11-23T10:08:03.669Z,7.8
2018-11-23T10:11:03.620Z,7.5
2018-11-23T10:14:03.867Z,7.7
2018-11-23T10:17:03.767Z,7.3
2018-11-23T10:20:03.765Z,7
2018-11-23T10:23:03.865Z,9.7
2018-11-23T10:26:04.062Z,9
2018-11-23T10:29:03.575Z,8.5
2018-11-23T10:32:04.789Z,13.2
2018-11-23T10:35:03.607Z,12.5
2018-11-23T10:38:04.010Z,11.1
2018-11-23T10:41:03.841Z,10.5
2018-11-23T10:44:04.154Z,11.3
2018-11-23T10:47:03.928Z,11
2018-11-23T10:50:03.964Z,10.3
2018-11-23T10:53:04.029Z,10.1
2018-11-23T10:56:04.146Z,8.9
2018-11-23T10:59:03.526Z,8.5
2018-11-23T11:02:03.864Z,10.7
2018-11-23T11:05:04.118Z,10
2018-11-23T11:08:05.755Z,9.2
2018-11-23T11:11:04.814Z,8.9
2018-11-23T11:14:03.964Z,9.8
2018-11-23T11:17:04.561Z,10
2018-11-23T11:20:03.862Z,10.1
2018-11-23T11:23:04.608Z,9.5
2018-11-23T11:26:03.850Z,8.1
2018-11-23T11:29:04.276Z,14.6
2018-11-23T11:32:03.766Z,13
2018-11-23T11:35:03.675Z,11.4
2018-11-23T11:38:03.628Z,9.9
2018-11-23T11:41:03.744Z,9.1
2018-11-23T11:44:03.561Z,8
2018-11-23T11:47:03.583Z,7.7
2018-11-23T11:50:03.911Z,7.6
2018-11-23T11:53:03.929Z,8.5
2018-11-23T11:56:03.703Z,7.7
2018-11-23T11:59:03.527Z,7.1
2018-11-23T12:02:10.593Z,7.8
2018-11-23T12:05:03.791Z,7.7
2018-11-23T12:08:03.547Z,6.9
2018-11-23T12:11:03.548Z,6.7
2018-11-23T12:14:03.853Z,6.3
2018-11-23T12:17:03.796Z,6.3
2018-11-23T12:20:03.541Z,6.8
2018-11-23T12:23:03.620Z,6.2
2018-11-23T12:26:03.769Z,5.9
2018-11-23T12:29:03.533Z,5.6
2018-11-23T12:32:03.934Z,6.2
2018-11-23T12:35:03.735Z,5.9
2018-11-23T12:38:03.760Z,6.4
2018-11-23T12:41:03.512Z,6.1
2018-11-23T12:44:03.928Z,5.7
2018-11-23T12:47:03.504Z,5.3
2018-11-23T12:50:03.468Z,5.6
2018-11-23T12:53:06.922Z,5.5
2018-11-23T12:56:04.469Z,5.3
2018-11-23T12:59:03.645Z,5.2
2018-11-23T13:02:03.928Z,6.3
2018-11-23T13:05:04.549Z,6
2018-11-23T13:08:03.403Z,5.6
2018-11-23T13:11:03.623Z,5.1
2018-11-23T13:14:03.868Z,5
2018-11-23T13:17:03.458Z,5
2018-11-23T13:20:03.513Z,4.8
2018-11-23T13:23:03.622Z,4.6
2018-11-23T13:26:03.872Z,4.8
2018-11-23T13:29:16.621Z,4.9
2018-11-23T13:32:03.524Z,5
2018-11-23T13:35:03.574Z,4.7
2018-11-23T13:38:03.871Z,4.6
2018-11-23T13:41:03.969Z,4.4
2018-11-23T13:44:03.929Z,4.5
2018-11-23T13:47:04.017Z,4.3
2018-11-23T13:50:03.864Z,4.3
2018-11-23T13:53:03.489Z,4.1
2018-11-23T13:56:03.891Z,4.2
2018-11-23T13:59:03.697Z,4.3
2018-11-23T14:02:03.448Z,4.3
2018-11-23T14:05:03.947Z,4.2
2018-11-23T14:08:03.690Z,4.2
2018-11-23T14:11:03.769Z,4.1
2018-11-23T14:14:04.017Z,3.9
2018-11-23T14:17:03.837Z,4
2018-11-23T14:20:04.222Z,4
2018-11-23T14:23:03.655Z,4
2018-11-23T14:26:03.625Z,3.9
2018-11-23T14:29:03.671Z,3.9
2018-11-23T14:32:03.430Z,4
2018-11-23T14:35:03.837Z,4
2018-11-23T14:38:03.866Z,3.9
2018-11-23T14:41:03.776Z,4.2
2018-11-23T14:44:07.584Z,3.9
2018-11-23T14:47:03.668Z,3.9
2018-11-23T14:50:03.922Z,3.9
2018-11-23T14:53:03.419Z,3.8
2018-11-23T14:56:03.800Z,3.6
2018-11-23T14:59:03.915Z,3.7
2018-11-23T15:02:03.359Z,3.7
2018-11-23T15:05:03.442Z,3.7
2018-11-23T15:08:03.561Z,3.6
2018-11-23T15:11:03.559Z,3.6
2018-11-23T15:14:03.584Z,3.5
2018-11-23T15:17:03.883Z,3.8
2018-11-23T15:20:03.375Z,3.6
2018-11-23T15:23:03.383Z,3.5
2018-11-23T15:26:03.573Z,3.4
2018-11-23T15:29:03.505Z,3.6
2018-11-23T15:32:03.513Z,3.5
2018-11-23T15:35:03.529Z,3.4
2018-11-23T15:38:10.772Z,3.3
2018-11-23T15:41:03.701Z,3.4
2018-11-23T15:44:03.655Z,3.5
2018-11-23T15:47:03.489Z,3.4
2018-11-23T15:50:03.542Z,3.4
2018-11-23T15:53:03.487Z,3.4
2018-11-23T15:56:03.906Z,3.4
2018-11-23T15:59:04.093Z,3.3
2018-11-23T16:02:03.571Z,3.1
2018-11-23T16:05:03.362Z,3.2
2018-11-23T16:08:03.702Z,3.1
2018-11-23T16:11:03.592Z,3
2018-11-23T16:14:04.022Z,3.3
2018-11-23T16:17:03.447Z,3.3
2018-11-23T16:20:03.922Z,3.2
2018-11-23T16:23:03.631Z,3.1
2018-11-23T16:26:03.822Z,3.1
2018-11-23T16:29:03.658Z,3.2
2018-11-23T16:32:03.499Z,3.2
2018-11-23T16:35:03.888Z,3.1
2018-11-23T16:38:03.567Z,3.2
2018-11-23T16:41:03.863Z,3.1
2018-11-23T16:44:03.370Z,3
2018-11-23T16:47:03.557Z,2.9
2018-11-23T16:50:03.373Z,2.9
2018-11-23T16:53:03.427Z,3.3
2018-11-23T16:56:03.570Z,3.2
2018-11-23T16:59:03.317Z,3.1
2018-11-23T17:02:03.542Z,3.2
2018-11-23T17:05:03.282Z,3.2
2018-11-23T17:08:03.324Z,3
2018-11-23T17:11:03.628Z,3
2018-11-23T17:14:03.397Z,2.9
2018-11-23T17:17:03.495Z,2.9
2018-11-23T17:20:03.913Z,2.8
2018-11-23T17:23:03.430Z,2.8
2018-11-23T17:26:03.833Z,2.9
2018-11-23T17:29:03.623Z,2.9
2018-11-23T17:32:03.376Z,3.1
2018-11-23T17:35:03.443Z,3
2018-11-23T17:38:03.570Z,2.9
2018-11-23T17:41:03.446Z,2.9
2018-11-23T17:44:03.667Z,2.9
2018-11-23T17:47:03.773Z,2.8
2018-11-23T17:50:03.500Z,2.9
2018-11-23T17:53:03.374Z,3.1
2018-11-23T17:56:03.541Z,2.9
2018-11-23T17:59:03.598Z,3
2018-11-23T18:02:03.422Z,3
2018-11-23T18:05:07.924Z,3.2
2018-11-23T18:08:03.563Z,3.1
2018-11-23T18:11:03.494Z,4.2
2018-11-23T18:14:03.751Z,3.6
2018-11-23T18:17:03.516Z,5.1
2018-11-23T18:20:03.516Z,5.2
2018-11-23T18:23:03.365Z,6.1
2018-11-23T18:26:03.785Z,5.7
2018-11-23T18:29:03.499Z,4.5
2018-11-23T18:32:03.383Z,4.7
2018-11-23T18:35:03.474Z,4.1
2018-11-23T18:38:03.565Z,3.5
2018-11-23T18:41:03.456Z,4.1
2018-11-23T18:44:03.501Z,3.8
2018-11-23T18:47:03.566Z,3.5
2018-11-23T18:50:03.525Z,3.9
2018-11-23T18:53:03.856Z,3.5
2018-11-23T18:56:03.847Z,3.2
2018-11-23T18:59:03.542Z,3.6
2018-11-23T19:02:03.309Z,3.6
2018-11-23T19:05:03.767Z,4.1
2018-11-23T19:08:03.857Z,3.6
2018-11-23T19:11:03.484Z,3.3
2018-11-23T19:14:03.606Z,3.5
2018-11-23T19:17:03.588Z,3.3
2018-11-23T19:20:03.238Z,3.2
2018-11-23T19:23:03.262Z,3.2
2018-11-23T19:26:03.988Z,3.1
2018-11-23T19:29:03.710Z,3.6
2018-11-23T19:32:03.429Z,3.4
2018-11-23T19:35:03.474Z,3.2
2018-11-23T19:38:03.359Z,3.3
2018-11-23T19:41:03.318Z,3.2
2018-11-23T19:44:03.480Z,3
2018-11-23T19:47:04.570Z,3.2
2018-11-23T19:50:03.489Z,3.2
2018-11-23T19:53:03.768Z,3.3
2018-11-23T19:56:03.582Z,3.2
2018-11-23T19:59:03.400Z,3.3
2018-11-23T20:02:03.440Z,3.1
2018-11-23T20:05:03.842Z,4.2
2018-11-23T20:08:03.450Z,4.5
2018-11-23T20:11:03.809Z,4.2
2018-11-23T20:14:03.307Z,3.9
2018-11-23T20:17:03.297Z,4
2018-11-23T20:20:03.693Z,10
2018-11-23T20:23:03.481Z,9.1
2018-11-23T20:26:03.257Z,8.3
2018-11-23T20:29:03.341Z,7
2018-11-23T20:32:03.450Z,6.5
2018-11-23T20:35:03.875Z,5.6
2018-11-23T20:38:03.649Z,5.5
2018-11-23T20:41:04.384Z,5.1
2018-11-23T20:44:03.538Z,5
2018-11-23T20:47:03.408Z,5.1
2018-11-23T20:50:03.903Z,5.3
2018-11-23T20:53:03.703Z,5.4
2018-11-23T20:56:03.423Z,6.3
2018-11-23T20:59:03.556Z,6.2
2018-11-23T21:02:03.151Z,6
2018-11-23T21:05:03.728Z,6.2
2018-11-23T21:08:03.612Z,5.9
2018-11-23T21:11:03.284Z,5.7
2018-11-23T21:14:03.292Z,6.7
2018-11-23T21:17:03.673Z,6.1
2018-11-23T21:20:03.229Z,6.1
2018-11-23T21:23:03.433Z,5.6
2018-11-23T21:26:03.620Z,5.3
2018-11-23T21:29:03.631Z,6.6
2018-11-23T21:32:03.662Z,5.8
2018-11-23T21:35:03.222Z,5.9
2018-11-23T21:38:03.201Z,6.2
2018-11-23T21:41:03.450Z,5.6
2018-11-23T21:44:03.471Z,5.6
2018-11-23T21:47:03.412Z,5.4
2018-11-23T21:50:03.453Z,5.6
2018-11-23T21:53:03.487Z,5.6
2018-11-23T21:56:10.051Z,5.5
2018-11-23T21:59:03.433Z,5.8
2018-11-23T22:02:07.730Z,5.3
2018-11-23T22:05:03.392Z,5.1
2018-11-23T22:08:03.488Z,5
2018-11-23T22:11:03.368Z,4.8
2018-11-23T22:14:03.498Z,4.9
2018-11-23T22:17:03.375Z,5
2018-11-23T22:20:03.599Z,4.9
2018-11-23T22:23:03.350Z,5.1
2018-11-23T22:26:03.428Z,5.6
2018-11-23T22:29:03.238Z,5.1
2018-11-23T22:32:03.278Z,5.1
2018-11-23T22:35:03.441Z,4.9
2018-11-23T22:38:03.683Z,4.9
2018-11-23T22:41:03.325Z,4.8
2018-11-23T22:44:03.676Z,4.9
2018-11-23T22:47:03.156Z,4.8
2018-11-23T22:50:03.564Z,5
2018-11-23T22:53:03.359Z,5
2018-11-23T22:56:03.538Z,5
2018-11-23T22:59:03.772Z,5
2018-11-23T23:02:03.843Z,4.9
2018-11-23T23:05:03.197Z,4.9
2018-11-23T23:08:03.607Z,4.8
2018-11-23T23:11:03.327Z,5
2018-11-23T23:14:03.238Z,5.1
2018-11-23T23:17:03.297Z,5
2018-11-23T23:20:03.433Z,5.1
2018-11-23T23:23:03.113Z,4.9
2018-11-23T23:26:03.129Z,4.8
2018-11-23T23:29:03.307Z,4.8
2018-11-23T23:32:03.351Z,4.8
2018-11-23T23:35:03.348Z,4.9
2018-11-23T23:38:03.304Z,4.9
2018-11-23T23:41:03.291Z,5
2018-11-23T23:44:03.425Z,5
2018-11-23T23:47:03.266Z,5
2018-11-23T23:50:03.361Z,4.9
2018-11-23T23:53:03.592Z,4.9
2018-11-23T23:56:03.784Z,5.1
2018-11-23T23:59:03.321Z,5.1
